Time;durP1;ratioP1;P1;durP2;ratioP2;P2;SDS_P1;SDS_P2;PMS_P1;PMS_P2;Temp;Humidity;BMP_temperature;BMP_pressure;BME280_temperature;BME280_humidity;BME280_pressure;Samples;Min_cycle;Max_cycle;Signal;HPM_P1;HPM_P2
2022/06/10 00:01:47;;;;;;;49.20;27.55;;;;;;;;;;4901088;29;20045;-63
2022/06/10 00:04:13;;;;;;;51.92;27.63;;;;;;;;;;4901014;29;20028;-64
2022/06/10 00:06:40;;;;;;;71.20;28.13;;;;;;;;;;4901099;29;20040;-63
2022/06/10 00:09:06;;;;;;;53.47;26.48;;;;;;;;;;4899568;29;20120;-63
2022/06/10 00:11:33;;;;;;;42.63;26.80;;;;;;;;;;4899288;29;20155;-63
2022/06/10 00:13:59;;;;;;;41.65;27.73;;;;;;;;;;4900797;29;20092;-63
2022/06/10 00:16:26;;;;;;;49.03;28.77;;;;;;;;;;4899562;29;20060;-63
2022/06/10 00:18:53;;;;;;;47.05;28.48;;;;;;;;;;4900789;29;20040;-63
2022/06/10 00:21:20;;;;;;;65.05;32.72;;;;;;;;;;4899820;29;20036;-63
2022/06/10 00:23:46;;;;;;;55.58;30.35;;;;;;;;;;4897509;29;20045;-63
2022/06/10 00:26:13;;;;;;;58.97;32.33;;;;;;;;;;4900794;29;20072;-63
2022/06/10 00:28:42;;;;;;;52.65;30.13;;;;;;;;;;4900894;29;20063;-63
2022/06/10 00:31:09;;;;;;;64.07;33.67;;;;;;;;;;4900719;29;20063;-63
2022/06/10 00:33:36;;;;;;;68.25;33.35;;;;;;;;;;4901331;29;20087;-63
2022/06/10 00:36:03;;;;;;;79.57;34.03;;;;;;;;;;4898065;29;20047;-63
2022/06/10 00:38:29;;;;;;;75.22;33.60;;;;;;;;;;4899208;29;20044;-63
2022/06/10 00:40:57;;;;;;;69.68;36.50;;;;;;;;;;4900610;29;20124;-63
2022/06/10 00:43:25;;;;;;;66.47;35.33;;;;;;;;;;4900706;29;20066;-63
2022/06/10 00:45:55;;;;;;;79.28;35.47;;;;;;;;;;4906613;29;20056;-63
2022/06/10 00:48:27;;;;;;;104.40;39.40;;;;;;;;;;4897040;29;20055;-63
2022/06/10 00:50:53;;;;;;;82.93;37.88;;;;;;;;;;4915250;29;20135;-63
2022/06/10 00:53:22;;;;;;;77.93;38.00;;;;;;;;;;4899043;29;20064;-63
2022/06/10 00:55:50;;;;;;;85.85;39.60;;;;;;;;;;4900464;29;20051;-63
2022/06/10 00:58:42;;;;;;;84.13;38.60;;;;;;;;;;4900497;29;20041;-63
2022/06/10 01:01:10;;;;;;;73.30;38.10;;;;;;;;;;4898128;29;20060;-63
2022/06/10 01:03:37;;;;;;;85.35;38.78;;;;;;;;;;4900494;29;20050;-63
2022/06/10 01:06:04;;;;;;;104.65;40.80;;;;;;;;;;4898398;29;20048;-63
2022/06/10 01:08:30;;;;;;;87.63;40.92;;;;;;;;;;4900596;29;20055;-63
2022/06/10 01:11:16;;;;;;;95.38;39.30;;;;;;;;;;4911195;29;20051;-63
2022/06/10 01:13:42;;;;;;;77.05;38.90;;;;;;;;;;4904542;29;20036;-63
2022/06/10 01:16:23;;;;;;;96.70;41.65;;;;;;;;;;4899940;29;20047;-63
2022/06/10 01:18:58;;;;;;;87.25;38.28;;;;;;;;;;4900410;29;20076;-63
2022/06/10 01:21:41;;;;;;;103.32;45.40;;;;;;;;;;4900665;29;20100;-63
2022/06/10 01:24:08;;;;;;;96.40;41.63;;;;;;;;;;4896321;29;20072;-63
2022/06/10 01:30:16;;;;;;;101.20;40.88;;;;;;;;;;4912631;29;20044;-63
2022/06/10 01:33:02;;;;;;;85.20;40.78;;;;;;;;;;4897074;29;20045;-63
2022/06/10 01:35:35;;;;;;;102.20;42.35;;;;;;;;;;4898794;29;20490;-63
2022/06/10 01:38:02;;;;;;;;;;;;;;;;;;4900830;29;20116;-64
2022/06/10 01:40:29;;;;;;;101.65;42.05;;;;;;;;;;4901745;29;19927;-63
2022/06/10 01:43:16;;;;;;;94.80;40.05;;;;;;;;;;4910307;29;20097;-63
2022/06/10 01:45:56;;;;;;;107.20;42.70;;;;;;;;;;4889500;29;20424;-63
2022/06/10 01:48:31;;;;;;;99.45;39.97;;;;;;;;;;4899986;29;20052;-63
2022/06/10 01:51:04;;;;;;;98.05;39.15;;;;;;;;;;4896990;29;20059;-63
2022/06/10 01:53:34;;;;;;;93.05;40.70;;;;;;;;;;4899025;29;20037;-63
2022/06/10 01:56:00;;;;;;;97.65;40.97;;;;;;;;;;4899852;29;20048;-64
2022/06/10 01:58:30;;;;;;;90.18;40.42;;;;;;;;;;4900010;29;20047;-63
2022/06/10 02:01:01;;;;;;;116.82;44.05;;;;;;;;;;4900243;29;20401;-63
2022/06/10 02:03:35;;;;;;;92.57;41.42;;;;;;;;;;4897191;29;20071;-63
2022/06/10 02:06:05;;;;;;;89.45;38.22;;;;;;;;;;4905651;29;20077;-63
2022/06/10 02:08:37;;;;;;;85.18;40.38;;;;;;;;;;4902451;29;20119;-63
2022/06/10 02:11:14;;;;;;;86.28;40.80;;;;;;;;;;4903339;29;20153;-63
2022/06/10 02:13:59;;;;;;;85.40;40.58;;;;;;;;;;4903328;29;20040;-63
2022/06/10 02:16:37;;;;;;;83.93;40.05;;;;;;;;;;4903296;29;20044;-63
2022/06/10 02:19:06;;;;;;;118.75;46.80;;;;;;;;;;4902931;29;20051;-63
2022/06/10 02:21:35;;;;;;;120.35;48.70;;;;;;;;;;4902901;29;20497;-63
2022/06/10 02:24:16;;;;;;;122.50;47.72;;;;;;;;;;4899099;29;20047;-63
2022/06/10 02:26:45;;;;;;;106.88;48.28;;;;;;;;;;4918359;29;20051;-63
2022/06/10 02:29:14;;;;;;;100.05;44.58;;;;;;;;;;4913974;29;20115;-63
2022/06/10 02:31:43;;;;;;;93.43;44.90;;;;;;;;;;4907495;29;20068;-63
2022/06/10 02:34:10;;;;;;;124.60;46.88;;;;;;;;;;4902557;29;20128;-64
2022/06/10 02:36:39;;;;;;;107.22;45.10;;;;;;;;;;4902896;29;20061;-64
2022/06/10 02:39:08;;;;;;;123.10;45.58;;;;;;;;;;4900702;29;20048;-64
2022/06/10 02:41:51;;;;;;;97.80;42.08;;;;;;;;;;4911241;29;20132;-63
2022/06/10 02:44:21;;;;;;;86.85;41.10;;;;;;;;;;4902792;29;20084;-63
2022/06/10 02:46:54;;;;;;;79.22;39.38;;;;;;;;;;4902646;29;20131;-63
2022/06/10 02:49:21;;;;;;;99.57;42.95;;;;;;;;;;4902271;29;20128;-63
2022/06/10 02:51:48;;;;;;;99.50;43.35;;;;;;;;;;4902467;29;20045;-63
2022/06/10 02:54:25;;;;;;;95.82;44.38;;;;;;;;;;4901763;29;20460;-64
2022/06/10 02:56:52;;;;;;;77.85;39.75;;;;;;;;;;4902830;29;20048;-63
2022/06/10 03:02:04;;;;;;;67.93;35.78;;;;;;;;;;4903401;29;20468;-63
2022/06/10 03:04:36;;;;;;;69.85;37.67;;;;;;;;;;4906886;29;20134;-63
2022/06/10 03:07:09;;;;;;;61.22;32.10;;;;;;;;;;4911594;29;20040;-63
2022/06/10 03:09:42;;;;;;;40.03;25.40;;;;;;;;;;4902307;29;20051;-63
2022/06/10 03:12:15;;;;;;;45.28;23.42;;;;;;;;;;4898214;29;20120;-63
2022/06/10 03:14:46;;;;;;;27.38;19.38;;;;;;;;;;4916809;29;20532;-63
2022/06/10 03:17:17;;;;;;;27.95;18.30;;;;;;;;;;4901782;29;20080;-63
2022/06/10 03:19:47;;;;;;;28.52;19.10;;;;;;;;;;4901569;29;20069;-63
2022/06/10 03:22:17;;;;;;;34.88;16.77;;;;;;;;;;4904487;29;20485;-63
2022/06/10 03:24:49;;;;;;;51.33;19.55;;;;;;;;;;4914083;29;20529;-63
2022/06/10 03:27:26;;;;;;;34.63;17.48;;;;;;;;;;4901475;29;20370;-63
2022/06/10 03:29:59;;;;;;;42.20;16.63;;;;;;;;;;4901741;29;20041;-63
2022/06/10 03:32:34;;;;;;;28.02;16.05;;;;;;;;;;4900363;29;20143;-62
2022/06/10 03:35:05;;;;;;;30.92;17.73;;;;;;;;;;4901439;29;20123;-63
2022/06/10 03:37:32;;;;;;;24.08;16.30;;;;;;;;;;4901742;29;20124;-61
2022/06/10 03:39:59;;;;;;;30.45;18.92;;;;;;;;;;4907511;29;20415;-61
2022/06/10 03:42:26;;;;;;;51.65;18.90;;;;;;;;;;4901566;29;20083;-61
2022/06/10 03:44:54;;;;;;;30.60;17.08;;;;;;;;;;4898019;29;20036;-62
2022/06/10 03:47:27;;;;;;;24.52;15.52;;;;;;;;;;4901645;29;20128;-61
2022/06/10 03:49:59;;;;;;;30.48;16.48;;;;;;;;;;4900952;29;20579;-62
2022/06/10 03:52:27;;;;;;;25.92;14.02;;;;;;;;;;4901260;29;20052;-62
2022/06/10 03:54:54;;;;;;;48.15;16.15;;;;;;;;;;4901498;29;20489;-62
2022/06/10 03:57:20;;;;;;;27.27;13.52;;;;;;;;;;4901264;29;20114;-63
2022/06/10 03:59:47;;;;;;;23.35;13.65;;;;;;;;;;4897994;29;20553;-63
2022/06/10 04:02:14;;;;;;;34.30;13.05;;;;;;;;;;4901493;29;20466;-63
2022/06/10 04:04:42;;;;;;;45.53;14.13;;;;;;;;;;4900356;29;20135;-63
2022/06/10 04:07:11;;;;;;;41.33;13.05;;;;;;;;;;4901090;29;20072;-63
2022/06/10 04:09:37;;;;;;;19.83;11.02;;;;;;;;;;4899359;29;20072;-63
2022/06/10 04:12:04;;;;;;;40.80;11.40;;;;;;;;;;4915777;29;20130;-62
2022/06/10 04:14:30;;;;;;;18.20;10.52;;;;;;;;;;4900125;29;20049;-61
2022/06/10 04:16:57;;;;;;;22.27;9.80;;;;;;;;;;4900712;29;20594;-62
2022/06/10 04:19:24;;;;;;;33.72;10.73;;;;;;;;;;4900730;29;20044;-62
2022/06/10 04:21:50;;;;;;;23.42;10.23;;;;;;;;;;4901149;29;20482;-62
2022/06/10 04:24:17;;;;;;;20.50;9.48;;;;;;;;;;4897154;29;20136;-62
2022/06/10 04:26:43;;;;;;;9.85;8.70;;;;;;;;;;4915688;29;20131;-62
2022/06/10 04:29:11;;;;;;;39.38;10.27;;;;;;;;;;4901415;29;20398;-62
2022/06/10 04:31:38;;;;;;;18.88;8.73;;;;;;;;;;4901053;29;20132;-62
2022/06/10 04:34:05;;;;;;;56.25;11.07;;;;;;;;;;4901615;29;20051;-63
2022/06/10 04:36:32;;;;;;;24.33;8.30;;;;;;;;;;4914630;29;20124;-63
2022/06/10 04:38:58;;;;;;;27.02;8.07;;;;;;;;;;4903717;29;20068;-63
2022/06/10 04:41:25;;;;;;;19.63;6.93;;;;;;;;;;4900263;29;20462;-63
2022/06/10 04:43:52;;;;;;;18.30;7.70;;;;;;;;;;4900431;29;20120;-63
2022/06/10 04:46:24;;;;;;;13.23;6.57;;;;;;;;;;4903653;29;20063;-63
2022/06/10 04:48:51;;;;;;;13.00;7.18;;;;;;;;;;4912119;29;20088;-62
2022/06/10 04:51:18;;;;;;;17.50;7.03;;;;;;;;;;4899263;29;20048;-63
2022/06/10 04:53:44;;;;;;;23.67;7.65;;;;;;;;;;4901697;29;20051;-62
2022/06/10 04:56:11;;;;;;;21.02;7.68;;;;;;;;;;4901290;29;20051;-64
2022/06/10 04:58:37;;;;;;;13.52;6.95;;;;;;;;;;4900264;29;20462;-64
2022/06/10 05:01:04;;;;;;;15.60;6.53;;;;;;;;;;4901655;29;20040;-63
2022/06/10 05:03:31;;;;;;;28.90;7.10;;;;;;;;;;4914546;29;20052;-63
2022/06/10 05:05:57;;;;;;;22.92;6.47;;;;;;;;;;4896805;29;20044;-63
2022/06/10 05:08:24;;;;;;;14.50;6.32;;;;;;;;;;4900225;29;20128;-64
2022/06/10 05:10:51;;;;;;;17.33;6.40;;;;;;;;;;4900264;29;20120;-63
2022/06/10 05:13:18;;;;;;;16.50;6.55;;;;;;;;;;4900573;29;20048;-63
2022/06/10 05:15:45;;;;;;;32.20;7.38;;;;;;;;;;4898528;29;20048;-63
2022/06/10 05:18:13;;;;;;;21.80;6.90;;;;;;;;;;4913243;29;20108;-63
2022/06/10 05:20:40;;;;;;;10.80;6.10;;;;;;;;;;4914388;29;20119;-64
2022/06/10 05:23:08;;;;;;;15.00;6.18;;;;;;;;;;4901605;29;20041;-64
2022/06/10 05:25:34;;;;;;;9.18;5.97;;;;;;;;;;4900116;29;20041;-64
2022/06/10 05:28:01;;;;;;;18.55;6.78;;;;;;;;;;4900099;29;20040;-63
2022/06/10 05:30:30;;;;;;;13.95;6.25;;;;;;;;;;4900181;29;20067;-64
2022/06/10 05:32:58;;;;;;;45.50;8.55;;;;;;;;;;4896667;29;20072;-63
2022/06/10 05:35:24;;;;;;;22.15;6.85;;;;;;;;;;4907447;29;20040;-63
2022/06/10 05:37:51;;;;;;;23.90;6.32;;;;;;;;;;4910809;29;20047;-63
2022/06/10 05:40:20;;;;;;;46.13;8.52;;;;;;;;;;4908486;29;20033;-63
2022/06/10 05:42:47;;;;;;;18.38;6.68;;;;;;;;;;4904158;29;20041;-63
2022/06/10 05:45:17;;;;;;;51.30;9.07;;;;;;;;;;4901254;29;20128;-62
2022/06/10 05:47:44;;;;;;;33.85;7.65;;;;;;;;;;4900581;29;20123;-62
2022/06/10 05:50:13;;;;;;;35.83;7.50;;;;;;;;;;4908176;29;20100;-61
2022/06/10 05:52:40;;;;;;;36.67;6.93;;;;;;;;;;4908596;29;20078;-64
2022/06/10 05:55:08;;;;;;;29.40;6.53;;;;;;;;;;4903452;29;20124;-63
2022/06/10 05:57:34;;;;;;;37.20;7.85;;;;;;;;;;4903650;29;20055;-64
2022/06/10 06:00:02;;;;;;;57.08;8.82;;;;;;;;;;4900179;29;20519;-63
2022/06/10 06:02:29;;;;;;;22.85;6.13;;;;;;;;;;4902238;29;20091;-63
2022/06/10 06:04:58;;;;;;;29.60;5.80;;;;;;;;;;4910540;29;20043;-64
2022/06/10 06:07:26;;;;;;;23.65;6.45;;;;;;;;;;4910531;29;20433;-65
2022/06/10 06:09:52;;;;;;;16.13;5.10;;;;;;;;;;4902548;29;20044;-63
2022/06/10 06:12:19;;;;;;;31.13;6.60;;;;;;;;;;4900940;29;20064;-64
2022/06/10 06:14:46;;;;;;;60.90;8.85;;;;;;;;;;4900323;29;20048;-64
2022/06/10 06:17:14;;;;;;;21.25;5.65;;;;;;;;;;4902788;29;20596;-64
2022/06/10 06:19:40;;;;;;;23.65;4.90;;;;;;;;;;4908825;29;20163;-63
2022/06/10 06:22:07;;;;;;;22.50;5.03;;;;;;;;;;4913337;29;20123;-63
2022/06/10 06:24:36;;;;;;;15.48;4.00;;;;;;;;;;4913887;29;20045;-64
2022/06/10 06:27:03;;;;;;;26.60;5.15;;;;;;;;;;4917491;29;20474;-64
2022/06/10 06:29:29;;;;;;;19.42;4.30;;;;;;;;;;4902324;29;20083;-64
2022/06/10 06:31:56;;;;;;;23.85;4.78;;;;;;;;;;4902532;29;20048;-64
2022/06/10 06:34:24;;;;;;;15.93;4.35;;;;;;;;;;4906059;29;20076;-64
2022/06/10 06:36:51;;;;;;;27.80;5.43;;;;;;;;;;4902549;29;20037;-64
2022/06/10 06:39:19;;;;;;;42.50;6.70;;;;;;;;;;4897493;29;23182;-64
2022/06/10 06:41:47;;;;;;;24.08;5.40;;;;;;;;;;4916736;29;20446;-64
2022/06/10 06:44:14;;;;;;;23.17;4.60;;;;;;;;;;4902763;29;20072;-64
2022/06/10 06:46:42;;;;;;;20.23;4.25;;;;;;;;;;4902480;29;20041;-65
2022/06/10 06:49:11;;;;;;;38.35;6.20;;;;;;;;;;4901682;29;20053;-64
2022/06/10 06:51:39;;;;;;;34.35;5.47;;;;;;;;;;4902190;29;20107;-65
2022/06/10 06:54:07;;;;;;;78.95;8.60;;;;;;;;;;4899630;29;20127;-64
2022/06/10 06:56:33;;;;;;;14.10;5.85;;;;;;;;;;4901116;29;20128;-64
2022/06/10 06:59:00;;;;;;;10.48;4.22;;;;;;;;;;4902433;29;20056;-64
2022/06/10 07:01:26;;;;;;;31.92;5.43;;;;;;;;;;4902358;29;20136;-64
2022/06/10 07:03:53;;;;;;;29.30;5.78;;;;;;;;;;4902709;29;20108;-64
2022/06/10 07:06:19;;;;;;;40.97;6.30;;;;;;;;;;4900969;29;20127;-64
2022/06/10 07:08:46;;;;;;;151.77;14.73;;;;;;;;;;4899718;29;20557;-64
2022/06/10 07:11:12;;;;;;;18.02;4.60;;;;;;;;;;4901293;29;20041;-64
2022/06/10 07:13:39;;;;;;;10.68;4.40;;;;;;;;;;4907876;29;20067;-64
2022/06/10 07:16:06;;;;;;;15.07;4.70;;;;;;;;;;4912756;29;20043;-64
2022/06/10 07:18:33;;;;;;;16.15;4.40;;;;;;;;;;4912895;29;20048;-64
2022/06/10 07:21:00;;;;;;;46.42;6.88;;;;;;;;;;4913143;29;20041;-66
2022/06/10 07:23:27;;;;;;;22.25;5.07;;;;;;;;;;4909531;29;20123;-63
2022/06/10 07:25:54;;;;;;;28.08;6.03;;;;;;;;;;4910061;29;20552;-65
2022/06/10 07:28:21;;;;;;;89.07;9.77;;;;;;;;;;4910473;29;20113;-63
2022/06/10 07:30:47;;;;;;;20.60;5.10;;;;;;;;;;4914200;29;20497;-64
2022/06/10 07:33:14;;;;;;;38.78;6.18;;;;;;;;;;4905759;29;20071;-64
2022/06/10 07:35:41;;;;;;;38.92;6.35;;;;;;;;;;4909393;29;20044;-64
2022/06/10 07:38:09;;;;;;;9.93;4.60;;;;;;;;;;4903621;29;20084;-63
2022/06/10 07:43:39;;;;;;;;;;;;;;;;;;4901303;29;20053;-65
2022/06/10 07:46:06;;;;;;;21.60;5.03;;;;;;;;;;4900662;29;19923;-64
2022/06/10 07:48:33;;;;;;;25.75;5.35;;;;;;;;;;4898037;29;20485;-63
2022/06/10 07:51:00;;;;;;;22.45;4.90;;;;;;;;;;4900383;29;20052;-63
2022/06/10 07:53:29;;;;;;;19.75;4.60;;;;;;;;;;4900620;29;20104;-63
2022/06/10 07:55:56;;;;;;;29.70;5.35;;;;;;;;;;4908958;29;20043;-64
2022/06/10 07:58:24;;;;;;;25.27;5.20;;;;;;;;;;4908201;29;20513;-63
2022/06/10 08:00:51;;;;;;;16.80;4.72;;;;;;;;;;4901039;29;20047;-64
2022/06/10 08:03:18;;;;;;;31.55;5.57;;;;;;;;;;4898767;29;20071;-64
2022/06/10 08:05:45;;;;;;;17.60;4.18;;;;;;;;;;4897180;29;20104;-64
2022/06/10 08:08:15;;;;;;;55.67;6.97;;;;;;;;;;4910035;29;20048;-63
2022/06/10 08:10:42;;;;;;;29.67;5.07;;;;;;;;;;4912060;29;20044;-66
2022/06/10 08:13:09;;;;;;;28.25;4.80;;;;;;;;;;4910248;29;20048;-65
2022/06/10 08:15:36;;;;;;;18.52;4.80;;;;;;;;;;4900668;29;20087;-64
2022/06/10 08:18:04;;;;;;;40.08;6.25;;;;;;;;;;4897524;29;20136;-63
2022/06/10 08:23:18;;;;;;;48.40;6.30;;;;;;;;;;4900439;29;20477;-63
2022/06/10 08:25:45;;;;;;;21.63;4.20;;;;;;;;;;4900004;29;20123;-64
2022/06/10 08:28:11;;;;;;;19.00;4.63;;;;;;;;;;4900398;29;20058;-63
2022/06/10 08:30:38;;;;;;;25.00;5.10;;;;;;;;;;4899286;29;20143;-64
2022/06/10 08:33:04;;;;;;;39.63;5.93;;;;;;;;;;4902822;29;20079;-63
2022/06/10 08:35:32;;;;;;;18.77;4.07;;;;;;;;;;4913116;29;20463;-63
2022/06/10 08:38:00;;;;;;;23.05;5.13;;;;;;;;;;4903597;29;20048;-63
2022/06/10 08:40:29;;;;;;;17.30;4.15;;;;;;;;;;4905704;29;20044;-63
2022/06/10 08:43:00;;;;;;;24.30;4.57;;;;;;;;;;4900062;29;20040;-63
2022/06/10 08:45:30;;;;;;;58.53;6.35;;;;;;;;;;4913846;29;20072;-63
2022/06/10 08:47:57;;;;;;;28.88;4.63;;;;;;;;;;4913785;29;20118;-63
2022/06/10 08:50:42;;;;;;;24.02;4.25;;;;;;;;;;4899782;29;20131;-64
2022/06/10 08:53:12;;;;;;;22.33;4.22;;;;;;;;;;4899558;29;20545;-63
2022/06/10 08:55:47;;;;;;;112.35;11.18;;;;;;;;;;4905198;29;20064;-64
2022/06/10 08:58:23;;;;;;;22.20;4.97;;;;;;;;;;4908598;29;20123;-62
2022/06/10 09:00:56;;;;;;;24.85;4.53;;;;;;;;;;4899911;29;20064;-63
2022/06/10 09:03:28;;;;;;;31.38;4.25;;;;;;;;;;4899267;29;20044;-63
2022/06/10 09:05:57;;;;;;;23.90;4.37;;;;;;;;;;4896306;29;20154;-63
2022/06/10 09:08:26;;;;;;;32.90;5.07;;;;;;;;;;4900224;29;20085;-66
2022/06/10 09:10:57;;;;;;;26.23;4.40;;;;;;;;;;4899250;29;20048;-63
2022/06/10 09:13:24;;;;;;;36.40;5.32;;;;;;;;;;4903436;29;20127;-63
2022/06/10 09:16:12;;;;;;;25.02;4.40;;;;;;;;;;4912950;29;20143;-63
2022/06/10 09:18:42;;;;;;;82.38;10.15;;;;;;;;;;4903336;29;20040;-63
2022/06/10 09:21:14;;;;;;;29.83;4.55;;;;;;;;;;4900969;29;20402;-64
2022/06/10 09:23:43;;;;;;;20.80;3.88;;;;;;;;;;4902469;29;20131;-63
2022/06/10 09:26:19;;;;;;;24.80;4.80;;;;;;;;;;4903900;29;20405;-63
2022/06/10 09:28:46;;;;;;;25.27;4.63;;;;;;;;;;4906941;29;20399;-63
2022/06/10 09:31:21;;;;;;;22.25;5.13;;;;;;;;;;4904164;29;20100;-63
2022/06/10 09:33:52;;;;;;;35.28;4.78;;;;;;;;;;4902495;29;20532;-64
2022/06/10 09:36:34;;;;;;;181.82;14.50;;;;;;;;;;4906751;29;20049;-63
2022/06/10 09:42:10;;;;;;;73.43;8.68;;;;;;;;;;4902982;29;20164;-62
2022/06/10 09:44:41;;;;;;;25.70;5.75;;;;;;;;;;4901969;29;20127;-64
2022/06/10 09:47:17;;;;;;;18.13;5.55;;;;;;;;;;4903330;29;20096;-63
2022/06/10 09:49:54;;;;;;;36.13;7.13;;;;;;;;;;4902892;29;20040;-64
2022/06/10 09:52:29;;;;;;;43.78;6.13;;;;;;;;;;4904259;29;20354;-64
2022/06/10 09:54:55;;;;;;;15.93;5.60;;;;;;;;;;4914361;29;20052;-63
2022/06/10 09:57:28;;;;;;;54.22;8.32;;;;;;;;;;4917877;29;20044;-64
2022/06/10 09:59:57;;;;;;;28.67;7.15;;;;;;;;;;4899820;29;20160;-64
2022/06/10 10:02:27;;;;;;;27.48;6.38;;;;;;;;;;4914100;29;20040;-64
2022/06/10 10:05:11;;;;;;;169.35;15.00;;;;;;;;;;4906641;29;20077;-63
2022/06/10 10:07:50;;;;;;;37.97;5.57;;;;;;;;;;4907382;29;20049;-64
2022/06/10 10:10:29;;;;;;;16.02;4.25;;;;;;;;;;4906734;29;20076;-63
2022/06/10 10:13:11;;;;;;;19.85;6.40;;;;;;;;;;4909726;29;20131;-63
2022/06/10 10:15:37;;;;;;;37.70;6.10;;;;;;;;;;4912658;29;20119;-63
2022/06/10 10:18:09;;;;;;;103.82;9.77;;;;;;;;;;4897175;29;20047;-63
2022/06/10 10:20:42;;;;;;;23.52;4.00;;;;;;;;;;4901691;29;20100;-64
2022/06/10 10:23:14;;;;;;;28.25;5.72;;;;;;;;;;4906838;29;20037;-63
2022/06/10 10:25:44;;;;;;;41.55;8.18;;;;;;;;;;4907700;29;20037;-63
2022/06/10 10:28:21;;;;;;;88.32;9.07;;;;;;;;;;4906090;29;20469;-63
2022/06/10 10:30:54;;;;;;;40.05;5.28;;;;;;;;;;4901314;29;20785;-66
2022/06/10 10:33:20;;;;;;;21.15;4.10;;;;;;;;;;4901286;29;20082;-63
2022/06/10 10:35:52;;;;;;;37.22;5.05;;;;;;;;;;4899720;29;20044;-62
2022/06/10 10:38:40;;;;;;;21.90;4.63;;;;;;;;;;4912714;29;20044;-60
2022/06/10 10:41:26;;;;;;;39.25;5.88;;;;;;;;;;4909932;29;20056;-60
2022/06/10 10:43:57;;;;;;;25.00;4.60;;;;;;;;;;4917168;29;20055;-60
2022/06/10 10:46:29;;;;;;;25.73;4.47;;;;;;;;;;4913192;29;20044;-60
2022/06/10 10:48:57;;;;;;;670.58;54.05;;;;;;;;;;4913514;29;20120;-60
2022/06/10 10:51:26;;;;;;;34.15;5.32;;;;;;;;;;4901166;29;20135;-60
2022/06/10 10:54:28;;;;;;;32.40;5.07;;;;;;;;;;4902285;29;20147;-57
2022/06/10 10:56:55;;;;;;;42.28;6.38;;;;;;;;;;4898953;29;20048;-64
2022/06/10 10:59:29;;;;;;;23.00;4.82;;;;;;;;;;4901800;29;20132;-63
2022/06/10 11:01:56;;;;;;;104.90;10.30;;;;;;;;;;4902160;29;20036;-63
2022/06/10 11:04:31;;;;;;;24.90;4.82;;;;;;;;;;4904522;29;20134;-64
2022/06/10 11:07:01;;;;;;;53.22;7.13;;;;;;;;;;4903345;29;20402;-63
2022/06/10 11:09:52;;;;;;;158.77;13.02;;;;;;;;;;4901952;29;20040;-63
2022/06/10 11:12:20;;;;;;;109.10;11.18;;;;;;;;;;4899028;29;20055;-63
2022/06/10 11:14:49;;;;;;;22.13;4.65;;;;;;;;;;4902731;29;20049;-64
2022/06/10 11:17:19;;;;;;;25.08;4.85;;;;;;;;;;4901460;29;20037;-63
2022/06/10 11:19:48;;;;;;;13.38;4.38;;;;;;;;;;4901340;29;20104;-66
2022/06/10 11:22:35;;;;;;;30.65;5.32;;;;;;;;;;4900794;29;20041;-65
2022/06/10 11:25:02;;;;;;;26.50;4.70;;;;;;;;;;4900662;29;20041;-66
2022/06/10 11:27:31;;;;;;;46.85;5.85;;;;;;;;;;4907190;29;20048;-65
2022/06/10 11:30:00;;;;;;;24.40;4.28;;;;;;;;;;4902845;29;20507;-65
2022/06/10 11:32:30;;;;;;;52.55;6.60;;;;;;;;;;4900499;29;20458;-65
2022/06/10 11:35:02;;;;;;;21.58;3.92;;;;;;;;;;4912165;29;20036;-64
2022/06/10 11:37:36;;;;;;;18.25;3.70;;;;;;;;;;4908795;29;20048;-64
2022/06/10 11:40:23;;;;;;;20.00;3.72;;;;;;;;;;4900127;29;20049;-67
2022/06/10 11:42:56;;;;;;;25.20;4.07;;;;;;;;;;4901386;29;20586;-64
2022/06/10 11:45:31;;;;;;;27.50;4.32;;;;;;;;;;4921823;29;20063;-65
2022/06/10 11:48:04;;;;;;;45.47;5.07;;;;;;;;;;4901784;29;20136;-65
2022/06/10 11:50:36;;;;;;;59.70;6.40;;;;;;;;;;4899862;29;20643;-65
2022/06/10 11:53:10;;;;;;;15.23;3.30;;;;;;;;;;4901082;29;20550;-64
2022/06/10 11:55:40;;;;;;;38.97;5.47;;;;;;;;;;4905447;29;20131;-65
2022/06/10 12:01:05;;;;;;;45.25;4.82;;;;;;;;;;4909704;29;20472;-64
2022/06/10 12:03:32;;;;;;;28.42;4.22;;;;;;;;;;4900569;29;20044;-65
2022/06/10 12:06:11;;;;;;;44.38;5.20;;;;;;;;;;4907174;29;20512;-65
2022/06/10 12:08:41;;;;;;;22.15;3.53;;;;;;;;;;4914460;29;20417;-64
2022/06/10 12:11:20;;;;;;;50.78;6.20;;;;;;;;;;4912304;29;20123;-63
2022/06/10 12:13:50;;;;;;;36.67;4.20;;;;;;;;;;4905902;29;20040;-63
2022/06/10 12:16:17;;;;;;;16.48;3.30;;;;;;;;;;4909211;29;20068;-64
2022/06/10 12:18:49;;;;;;;35.47;4.95;;;;;;;;;;4914048;29;20052;-64
2022/06/10 12:21:19;;;;;;;37.95;4.90;;;;;;;;;;4910580;29;20054;-64
2022/06/10 12:23:47;;;;;;;39.97;4.90;;;;;;;;;;4898805;29;20072;-63
2022/06/10 12:26:16;;;;;;;22.70;3.67;;;;;;;;;;4908319;29;20104;-64
2022/06/10 12:28:52;;;;;;;25.40;3.92;;;;;;;;;;4903103;29;20064;-64
2022/06/10 12:31:25;;;;;;;12.23;3.22;;;;;;;;;;4902545;29;20050;-64
2022/06/10 12:33:51;;;;;;;33.28;4.78;;;;;;;;;;4910717;29;20406;-63
2022/06/10 12:36:31;;;;;;;31.73;4.60;;;;;;;;;;4915012;29;20119;-64
2022/06/10 12:38:59;;;;;;;38.47;4.93;;;;;;;;;;4897882;29;20071;-63
2022/06/10 12:41:38;;;;;;;28.38;3.90;;;;;;;;;;4913030;29;20079;-64
2022/06/10 12:44:11;;;;;;;29.73;4.50;;;;;;;;;;4910914;29;20066;-64
2022/06/10 12:46:40;;;;;;;16.42;3.95;;;;;;;;;;4911446;29;20040;-64
2022/06/10 12:49:19;;;;;;;54.63;7.05;;;;;;;;;;4910681;29;20048;-64
2022/06/10 12:51:58;;;;;;;231.85;21.15;;;;;;;;;;4910350;29;20055;-64
2022/06/10 12:54:46;;;;;;;34.13;5.07;;;;;;;;;;4913810;29;20390;-64
2022/06/10 12:57:22;;;;;;;26.60;4.43;;;;;;;;;;4911282;29;20044;-64
2022/06/10 12:59:49;;;;;;;24.08;5.68;;;;;;;;;;4913685;29;20036;-64
2022/06/10 13:02:42;;;;;;;40.17;6.05;;;;;;;;;;4900713;29;20116;-63
2022/06/10 13:05:20;;;;;;;44.55;5.90;;;;;;;;;;4898778;29;20084;-64
2022/06/10 13:07:49;;;;;;;31.00;5.57;;;;;;;;;;4905064;29;20087;-63
2022/06/10 13:10:28;;;;;;;46.17;6.00;;;;;;;;;;4909015;29;20052;-63
2022/06/10 13:12:58;;;;;;;50.65;6.60;;;;;;;;;;4899862;29;20052;-65
2022/06/10 13:15:26;;;;;;;43.35;6.32;;;;;;;;;;4898841;29;20075;-64
2022/06/10 13:17:54;;;;;;;26.38;5.60;;;;;;;;;;4897983;29;20052;-65
2022/06/10 13:20:21;;;;;;;18.75;4.95;;;;;;;;;;4909900;29;20048;-65
2022/06/10 13:23:17;;;;;;;42.03;6.80;;;;;;;;;;4904620;29;20036;-65
2022/06/10 13:25:47;;;;;;;44.13;7.80;;;;;;;;;;4896474;29;20564;-64
2022/06/10 13:28:35;;;;;;;45.88;7.32;;;;;;;;;;4909651;29;20047;-64
2022/06/10 13:31:10;;;;;;;34.05;6.40;;;;;;;;;;4903351;29;20127;-64
2022/06/10 13:33:37;;;;;;;25.60;5.78;;;;;;;;;;4899799;29;20040;-63
2022/06/10 13:36:03;;;;;;;49.13;8.32;;;;;;;;;;4896380;29;20144;-67
2022/06/10 13:38:35;;;;;;;31.77;6.10;;;;;;;;;;4900076;29;20092;-64
2022/06/10 13:43:49;;;;;;;26.45;4.75;;;;;;;;;;4899570;29;20047;-66
2022/06/10 13:46:19;;;;;;;36.38;5.63;;;;;;;;;;4899463;29;20041;-63
2022/06/10 13:48:46;;;;;;;35.15;5.45;;;;;;;;;;4897367;29;20044;-63
2022/06/10 13:51:34;;;;;;;38.70;5.93;;;;;;;;;;4913835;29;20462;-64
2022/06/10 13:54:03;;;;;;;39.30;6.53;;;;;;;;;;4900500;29;20127;-64
2022/06/10 13:56:33;;;;;;;77.45;9.07;;;;;;;;;;4899763;29;20557;-63
2022/06/10 13:59:00;;;;;;;43.15;6.38;;;;;;;;;;4900659;29;20128;-63
2022/06/10 14:01:35;;;;;;;34.42;5.57;;;;;;;;;;4908728;29;20144;-64
2022/06/10 14:04:12;;;;;;;67.53;8.05;;;;;;;;;;4903056;29;20041;-63
2022/06/10 14:07:02;;;;;;;30.48;5.30;;;;;;;;;;4898964;29;20048;-63
2022/06/10 14:09:30;;;;;;;27.50;4.53;;;;;;;;;;4908105;29;20052;-63
2022/06/10 14:11:57;;;;;;;26.23;4.20;;;;;;;;;;4899819;29;20072;-64
2022/06/10 14:14:23;;;;;;;58.22;6.05;;;;;;;;;;4902952;29;20044;-68
2022/06/10 14:17:02;;;;;;;46.50;5.65;;;;;;;;;;4903104;29;20044;-62
2022/06/10 14:19:29;;;;;;;16.63;3.47;;;;;;;;;;4902709;29;20135;-62
2022/06/10 14:21:55;;;;;;;18.02;3.85;;;;;;;;;;4901913;29;20051;-62
2022/06/10 14:24:30;;;;;;;51.08;5.68;;;;;;;;;;4909142;29;20070;-64
2022/06/10 14:27:03;;;;;;;24.30;3.95;;;;;;;;;;4910435;29;20433;-65
2022/06/10 14:29:43;;;;;;;32.88;4.60;;;;;;;;;;4906453;29;20478;-63
2022/06/10 14:32:32;;;;;;;19.75;3.33;;;;;;;;;;4909181;29;20127;-62
2022/06/10 14:35:00;;;;;;;41.08;5.07;;;;;;;;;;4909330;29;20048;-63
2022/06/10 14:37:35;;;;;;;23.90;3.85;;;;;;;;;;4910526;29;20046;-62
2022/06/10 14:40:01;;;;;;;22.67;3.83;;;;;;;;;;4908643;29;20040;-62
2022/06/10 14:42:30;;;;;;;30.00;4.57;;;;;;;;;;4907685;29;20462;-63
2022/06/10 14:44:59;;;;;;;137.82;11.60;;;;;;;;;;4910472;29;20130;-64
2022/06/10 14:47:28;;;;;;;39.92;4.78;;;;;;;;;;4911472;29;20072;-64
2022/06/10 14:49:55;;;;;;;36.30;4.28;;;;;;;;;;4911138;29;20082;-58
2022/06/10 14:52:36;;;;;;;39.00;4.55;;;;;;;;;;4910770;29;20060;-57
2022/06/10 14:55:04;;;;;;;59.30;6.03;;;;;;;;;;4902800;29;20040;-62
2022/06/10 14:57:31;;;;;;;124.55;10.95;;;;;;;;;;4902166;29;20040;-60
2022/06/10 14:59:58;;;;;;;19.45;3.97;;;;;;;;;;4909266;29;20044;-60
2022/06/10 15:02:25;;;;;;;214.02;18.00;;;;;;;;;;4902581;29;20037;-61
2022/06/10 15:07:36;;;;;;;21.75;3.70;;;;;;;;;;4905527;29;20040;-58
2022/06/10 15:10:05;;;;;;;28.83;4.60;;;;;;;;;;4912966;29;20059;-57